sensor_id;sensor_type;location;lat;lon;timestamp;P1;durP1;ratioP1;P2;durP2;ratioP2
10144;SDS011;5113;41.822;23.564;2023-07-29T00:00:38;3.07;;;2.87;;
10144;SDS011;5113;41.822;23.564;2023-07-29T00:03:45;2.77;;;2.57;;
10144;SDS011;5113;41.822;23.564;2023-07-29T00:06:53;2.93;;;2.70;;
10144;SDS011;5113;41.822;23.564;2023-07-29T00:09:59;2.80;;;2.60;;
10144;SDS011;5113;41.822;23.564;2023-07-29T00:13:05;3.80;;;2.97;;
10144;SDS011;5113;41.822;23.564;2023-07-29T00:16:13;3.07;;;2.20;;
10144;SDS011;5113;41.822;23.564;2023-07-29T00:19:21;3.20;;;3.00;;
10144;SDS011;5113;41.822;23.564;2023-07-29T00:22:29;3.63;;;2.70;;
10144;SDS011;5113;41.822;23.564;2023-07-29T00:25:35;3.80;;;2.63;;
10144;SDS011;5113;41.822;23.564;2023-07-29T00:28:42;3.27;;;2.97;;
10144;SDS011;5113;41.822;23.564;2023-07-29T00:31:48;3.00;;;2.80;;
10144;SDS011;5113;41.822;23.564;2023-07-29T00:34:55;3.23;;;2.93;;
10144;SDS011;5113;41.822;23.564;2023-07-29T00:38:03;3.43;;;2.97;;
10144;SDS011;5113;41.822;23.564;2023-07-29T00:41:09;2.93;;;2.73;;
10144;SDS011;5113;41.822;23.564;2023-07-29T00:44:18;3.83;;;3.43;;
10144;SDS011;5113;41.822;23.564;2023-07-29T00:47:24;3.77;;;3.30;;
10144;SDS011;5113;41.822;23.564;2023-07-29T00:50:31;2.90;;;2.70;;
10144;SDS011;5113;41.822;23.564;2023-07-29T00:53:40;3.13;;;2.90;;
10144;SDS011;5113;41.822;23.564;2023-07-29T00:56:46;3.03;;;2.73;;
10144;SDS011;5113;41.822;23.564;2023-07-29T00:59:53;3.23;;;2.93;;
10144;SDS011;5113;41.822;23.564;2023-07-29T01:02:59;3.23;;;2.93;;
10144;SDS011;5113;41.822;23.564;2023-07-29T01:06:09;3.47;;;3.17;;
10144;SDS011;5113;41.822;23.564;2023-07-29T01:09:25;3.57;;;3.27;;
10144;SDS011;5113;41.822;23.564;2023-07-29T01:12:39;3.27;;;2.97;;
10144;SDS011;5113;41.822;23.564;2023-07-29T01:15:52;3.17;;;2.93;;
10144;SDS011;5113;41.822;23.564;2023-07-29T01:19:03;3.40;;;3.10;;
10144;SDS011;5113;41.822;23.564;2023-07-29T01:22:11;2.70;;;2.50;;
10144;SDS011;5113;41.822;23.564;2023-07-29T01:25:21;3.07;;;2.70;;
10144;SDS011;5113;41.822;23.564;2023-07-29T01:28:27;3.57;;;3.27;;
10144;SDS011;5113;41.822;23.564;2023-07-29T01:31:36;3.13;;;2.80;;
10144;SDS011;5113;41.822;23.564;2023-07-29T01:34:48;3.47;;;3.17;;
10144;SDS011;5113;41.822;23.564;2023-07-29T01:38:03;2.60;;;2.50;;
10144;SDS011;5113;41.822;23.564;2023-07-29T01:41:14;2.87;;;2.60;;
10144;SDS011;5113;41.822;23.564;2023-07-29T01:44:22;2.60;;;2.50;;
10144;SDS011;5113;41.822;23.564;2023-07-29T01:47:28;2.70;;;2.50;;
10144;SDS011;5113;41.822;23.564;2023-07-29T01:50:35;4.00;;;3.23;;
10144;SDS011;5113;41.822;23.564;2023-07-29T01:53:41;3.43;;;2.53;;
10144;SDS011;5113;41.822;23.564;2023-07-29T01:56:49;3.03;;;2.83;;
10144;SDS011;5113;41.822;23.564;2023-07-29T01:59:57;2.93;;;2.73;;
10144;SDS011;5113;41.822;23.564;2023-07-29T02:03:03;3.60;;;3.30;;
10144;SDS011;5113;41.822;23.564;2023-07-29T02:06:09;3.67;;;3.40;;
10144;SDS011;5113;41.822;23.564;2023-07-29T02:09:16;3.87;;;3.00;;
10144;SDS011;5113;41.822;23.564;2023-07-29T02:12:24;3.33;;;3.03;;
10144;SDS011;5113;41.822;23.564;2023-07-29T02:15:30;3.37;;;3.17;;
10144;SDS011;5113;41.822;23.564;2023-07-29T02:18:36;3.73;;;3.43;;
10144;SDS011;5113;41.822;23.564;2023-07-29T02:21:43;3.43;;;3.13;;
10144;SDS011;5113;41.822;23.564;2023-07-29T02:24:49;3.40;;;3.10;;
10144;SDS011;5113;41.822;23.564;2023-07-29T02:27:57;3.03;;;2.83;;
10144;SDS011;5113;41.822;23.564;2023-07-29T02:31:14;3.50;;;3.20;;
10144;SDS011;5113;41.822;23.564;2023-07-29T02:34:21;3.33;;;3.03;;
10144;SDS011;5113;41.822;23.564;2023-07-29T02:37:28;3.63;;;3.40;;
10144;SDS011;5113;41.822;23.564;2023-07-29T02:40:34;3.47;;;3.00;;
10144;SDS011;5113;41.822;23.564;2023-07-29T02:43:43;3.63;;;2.93;;
10144;SDS011;5113;41.822;23.564;2023-07-29T02:46:49;3.20;;;2.80;;
10144;SDS011;5113;41.822;23.564;2023-07-29T02:49:56;3.53;;;3.23;;
10144;SDS011;5113;41.822;23.564;2023-07-29T02:53:05;3.90;;;3.60;;
10144;SDS011;5113;41.822;23.564;2023-07-29T02:56:11;3.80;;;3.10;;
10144;SDS011;5113;41.822;23.564;2023-07-29T02:59:19;3.30;;;3.00;;
10144;SDS011;5113;41.822;23.564;2023-07-29T03:02:26;3.80;;;3.60;;
10144;SDS011;5113;41.822;23.564;2023-07-29T03:05:32;3.70;;;3.07;;
10144;SDS011;5113;41.822;23.564;2023-07-29T03:08:38;3.93;;;3.60;;
10144;SDS011;5113;41.822;23.564;2023-07-29T03:11:45;3.60;;;3.30;;
10144;SDS011;5113;41.822;23.564;2023-07-29T03:14:53;3.23;;;2.93;;
10144;SDS011;5113;41.822;23.564;2023-07-29T03:18:00;3.40;;;3.10;;
10144;SDS011;5113;41.822;23.564;2023-07-29T03:21:07;3.63;;;3.43;;
10144;SDS011;5113;41.822;23.564;2023-07-29T03:24:14;3.57;;;3.27;;
10144;SDS011;5113;41.822;23.564;2023-07-29T03:27:21;3.73;;;3.43;;
10144;SDS011;5113;41.822;23.564;2023-07-29T03:30:29;3.83;;;3.50;;
10144;SDS011;5113;41.822;23.564;2023-07-29T03:33:35;4.03;;;3.60;;
10144;SDS011;5113;41.822;23.564;2023-07-29T03:36:42;3.73;;;3.47;;
10144;SDS011;5113;41.822;23.564;2023-07-29T03:39:50;3.10;;;2.90;;
10144;SDS011;5113;41.822;23.564;2023-07-29T03:42:57;3.17;;;2.87;;
10144;SDS011;5113;41.822;23.564;2023-07-29T03:46:05;3.77;;;3.53;;
10144;SDS011;5113;41.822;23.564;2023-07-29T03:49:15;3.53;;;3.23;;
10144;SDS011;5113;41.822;23.564;2023-07-29T03:52:22;4.27;;;3.83;;
10144;SDS011;5113;41.822;23.564;2023-07-29T03:55:28;3.67;;;3.40;;
10144;SDS011;5113;41.822;23.564;2023-07-29T03:58:35;3.97;;;3.67;;
10144;SDS011;5113;41.822;23.564;2023-07-29T04:01:43;4.00;;;3.33;;
10144;SDS011;5113;41.822;23.564;2023-07-29T04:04:49;3.97;;;3.57;;
10144;SDS011;5113;41.822;23.564;2023-07-29T04:07:56;4.23;;;3.60;;
10144;SDS011;5113;41.822;23.564;2023-07-29T04:11:03;3.27;;;3.07;;
10144;SDS011;5113;41.822;23.564;2023-07-29T04:14:09;4.37;;;3.60;;
10144;SDS011;5113;41.822;23.564;2023-07-29T04:17:17;3.53;;;3.27;;
10144;SDS011;5113;41.822;23.564;2023-07-29T04:20:23;3.60;;;3.30;;
10144;SDS011;5113;41.822;23.564;2023-07-29T04:23:30;3.50;;;3.20;;
10144;SDS011;5113;41.822;23.564;2023-07-29T04:26:36;3.43;;;3.13;;
10144;SDS011;5113;41.822;23.564;2023-07-29T04:29:44;3.77;;;3.23;;
10144;SDS011;5113;41.822;23.564;2023-07-29T04:32:52;3.80;;;3.50;;
10144;SDS011;5113;41.822;23.564;2023-07-29T04:35:58;3.40;;;3.10;;
10144;SDS011;5113;41.822;23.564;2023-07-29T04:39:04;3.63;;;3.23;;
10144;SDS011;5113;41.822;23.564;2023-07-29T04:42:11;6.20;;;3.23;;
10144;SDS011;5113;41.822;23.564;2023-07-29T04:45:18;3.67;;;3.37;;
10144;SDS011;5113;41.822;23.564;2023-07-29T04:48:26;5.30;;;3.90;;
10144;SDS011;5113;41.822;23.564;2023-07-29T04:51:32;5.37;;;4.57;;
10144;SDS011;5113;41.822;23.564;2023-07-29T04:54:38;4.63;;;3.97;;
10144;SDS011;5113;41.822;23.564;2023-07-29T04:57:45;6.37;;;4.83;;
10144;SDS011;5113;41.822;23.564;2023-07-29T05:00:51;3.80;;;3.50;;
10144;SDS011;5113;41.822;23.564;2023-07-29T05:03:59;4.97;;;4.47;;
10144;SDS011;5113;41.822;23.564;2023-07-29T05:07:05;3.80;;;3.43;;
10144;SDS011;5113;41.822;23.564;2023-07-29T05:10:12;5.23;;;4.67;;
10144;SDS011;5113;41.822;23.564;2023-07-29T05:13:18;3.70;;;3.37;;
10144;SDS011;5113;41.822;23.564;2023-07-29T05:16:25;4.30;;;3.90;;
10144;SDS011;5113;41.822;23.564;2023-07-29T05:19:33;4.63;;;4.03;;
10144;SDS011;5113;41.822;23.564;2023-07-29T05:22:39;3.40;;;3.10;;
10144;SDS011;5113;41.822;23.564;2023-07-29T05:25:46;4.20;;;3.90;;
10144;SDS011;5113;41.822;23.564;2023-07-29T05:28:52;4.83;;;3.97;;
10144;SDS011;5113;41.822;23.564;2023-07-29T05:31:59;3.80;;;3.50;;
10144;SDS011;5113;41.822;23.564;2023-07-29T05:35:08;4.23;;;3.67;;
10144;SDS011;5113;41.822;23.564;2023-07-29T05:38:15;4.50;;;4.10;;
10144;SDS011;5113;41.822;23.564;2023-07-29T05:41:22;4.03;;;3.73;;
10144;SDS011;5113;41.822;23.564;2023-07-29T05:44:28;4.73;;;3.80;;
10144;SDS011;5113;41.822;23.564;2023-07-29T05:47:35;6.53;;;3.67;;
10144;SDS011;5113;41.822;23.564;2023-07-29T05:50:43;4.47;;;3.07;;
10144;SDS011;5113;41.822;23.564;2023-07-29T05:53:49;3.27;;;3.07;;
10144;SDS011;5113;41.822;23.564;2023-07-29T05:56:56;4.07;;;3.67;;
10144;SDS011;5113;41.822;23.564;2023-07-29T06:00:03;3.70;;;3.40;;
10144;SDS011;5113;41.822;23.564;2023-07-29T06:03:10;3.50;;;3.20;;
10144;SDS011;5113;41.822;23.564;2023-07-29T06:06:18;4.87;;;4.03;;
10144;SDS011;5113;41.822;23.564;2023-07-29T06:09:25;3.20;;;3.00;;
10144;SDS011;5113;41.822;23.564;2023-07-29T06:12:31;3.67;;;3.40;;
10144;SDS011;5113;41.822;23.564;2023-07-29T06:15:38;7.23;;;4.43;;
10144;SDS011;5113;41.822;23.564;2023-07-29T06:18:45;5.77;;;4.53;;
10144;SDS011;5113;41.822;23.564;2023-07-29T06:21:54;7.10;;;5.50;;
10144;SDS011;5113;41.822;23.564;2023-07-29T06:25:01;6.17;;;5.30;;
10144;SDS011;5113;41.822;23.564;2023-07-29T06:28:08;4.27;;;3.97;;
10144;SDS011;5113;41.822;23.564;2023-07-29T06:31:15;4.17;;;3.67;;
10144;SDS011;5113;41.822;23.564;2023-07-29T06:34:21;4.33;;;3.70;;
10144;SDS011;5113;41.822;23.564;2023-07-29T06:37:31;3.20;;;2.90;;
10144;SDS011;5113;41.822;23.564;2023-07-29T06:40:38;3.70;;;3.40;;
10144;SDS011;5113;41.822;23.564;2023-07-29T06:43:44;3.43;;;3.17;;
10144;SDS011;5113;41.822;23.564;2023-07-29T06:46:51;3.00;;;2.80;;
10144;SDS011;5113;41.822;23.564;2023-07-29T06:49:57;3.53;;;3.23;;
10144;SDS011;5113;41.822;23.564;2023-07-29T06:53:05;3.37;;;3.17;;
10144;SDS011;5113;41.822;23.564;2023-07-29T06:56:12;3.40;;;3.10;;
10144;SDS011;5113;41.822;23.564;2023-07-29T06:59:18;3.20;;;3.00;;
10144;SDS011;5113;41.822;23.564;2023-07-29T07:02:25;3.50;;;3.30;;
10144;SDS011;5113;41.822;23.564;2023-07-29T07:05:31;3.37;;;3.17;;
10144;SDS011;5113;41.822;23.564;2023-07-29T07:08:39;3.63;;;3.33;;
10144;SDS011;5113;41.822;23.564;2023-07-29T07:11:46;3.65;;;3.33;;
10144;SDS011;5113;41.822;23.564;2023-07-29T07:14:53;4.00;;;3.70;;
10144;SDS011;5113;41.822;23.564;2023-07-29T07:17:59;4.40;;;4.10;;
10144;SDS011;5113;41.822;23.564;2023-07-29T07:21:06;4.25;;;3.85;;
10144;SDS011;5113;41.822;23.564;2023-07-29T07:24:14;3.70;;;3.40;;
10144;SDS011;5113;41.822;23.564;2023-07-29T07:27:21;3.45;;;2.75;;
10144;SDS011;5113;41.822;23.564;2023-07-29T07:30:28;3.35;;;3.05;;
10144;SDS011;5113;41.822;23.564;2023-07-29T07:33:34;3.13;;;2.90;;
10144;SDS011;5113;41.822;23.564;2023-07-29T07:36:41;3.17;;;2.97;;
10144;SDS011;5113;41.822;23.564;2023-07-29T07:39:50;3.47;;;3.28;;
10144;SDS011;5113;41.822;23.564;2023-07-29T07:42:57;2.90;;;2.70;;
10144;SDS011;5113;41.822;23.564;2023-07-29T07:46:03;3.95;;;3.75;;
10144;SDS011;5113;41.822;23.564;2023-07-29T07:49:11;2.58;;;2.47;;
10144;SDS011;5113;41.822;23.564;2023-07-29T07:52:18;4.22;;;3.92;;
10144;SDS011;5113;41.822;23.564;2023-07-29T07:55:26;3.20;;;3.00;;
10144;SDS011;5113;41.822;23.564;2023-07-29T07:58:32;3.67;;;3.38;;
10144;SDS011;5113;41.822;23.564;2023-07-29T08:01:39;3.20;;;2.97;;
10144;SDS011;5113;41.822;23.564;2023-07-29T08:04:46;3.20;;;3.00;;
10144;SDS011;5113;41.822;23.564;2023-07-29T08:07:52;3.25;;;3.03;;
10144;SDS011;5113;41.822;23.564;2023-07-29T08:11:00;3.42;;;3.22;;
10144;SDS011;5113;41.822;23.564;2023-07-29T08:14:06;4.88;;;4.47;;
10144;SDS011;5113;41.822;23.564;2023-07-29T08:17:13;3.30;;;3.03;;
10144;SDS011;5113;41.822;23.564;2023-07-29T08:20:19;3.15;;;2.90;;
10144;SDS011;5113;41.822;23.564;2023-07-29T08:23:26;2.42;;;2.22;;
10144;SDS011;5113;41.822;23.564;2023-07-29T08:26:34;2.80;;;2.63;;
10144;SDS011;5113;41.822;23.564;2023-07-29T08:29:40;2.83;;;2.63;;
10144;SDS011;5113;41.822;23.564;2023-07-29T08:32:47;2.83;;;2.55;;
10144;SDS011;5113;41.822;23.564;2023-07-29T08:35:53;2.95;;;2.75;;
10144;SDS011;5113;41.822;23.564;2023-07-29T08:39:00;2.65;;;2.45;;
10144;SDS011;5113;41.822;23.564;2023-07-29T08:42:08;2.72;;;2.60;;
10144;SDS011;5113;41.822;23.564;2023-07-29T08:45:17;2.95;;;2.75;;
10144;SDS011;5113;41.822;23.564;2023-07-29T08:48:27;3.35;;;3.13;;
10144;SDS011;5113;41.822;23.564;2023-07-29T08:51:37;2.58;;;2.38;;
10144;SDS011;5113;41.822;23.564;2023-07-29T08:54:44;2.78;;;2.58;;
10144;SDS011;5113;41.822;23.564;2023-07-29T08:57:53;3.53;;;3.22;;
10144;SDS011;5113;41.822;23.564;2023-07-29T09:01:00;3.75;;;3.45;;
10144;SDS011;5113;41.822;23.564;2023-07-29T09:04:07;2.30;;;2.20;;
10144;SDS011;5113;41.822;23.564;2023-07-29T09:07:13;3.10;;;2.45;;
10144;SDS011;5113;41.822;23.564;2023-07-29T09:10:21;3.17;;;2.95;;
10144;SDS011;5113;41.822;23.564;2023-07-29T09:13:29;3.25;;;2.90;;
10144;SDS011;5113;41.822;23.564;2023-07-29T09:16:36;3.15;;;2.95;;
10144;SDS011;5113;41.822;23.564;2023-07-29T09:19:47;2.53;;;2.40;;
10144;SDS011;5113;41.822;23.564;2023-07-29T09:22:54;3.63;;;3.42;;
10144;SDS011;5113;41.822;23.564;2023-07-29T09:26:01;2.45;;;2.35;;
10144;SDS011;5113;41.822;23.564;2023-07-29T09:29:10;2.45;;;2.30;;
10144;SDS011;5113;41.822;23.564;2023-07-29T09:32:20;2.25;;;2.15;;
10144;SDS011;5113;41.822;23.564;2023-07-29T09:35:27;2.40;;;2.30;;
10144;SDS011;5113;41.822;23.564;2023-07-29T09:38:37;2.17;;;2.08;;
10144;SDS011;5113;41.822;23.564;2023-07-29T09:41:46;2.60;;;2.50;;
10144;SDS011;5113;41.822;23.564;2023-07-29T09:44:55;2.33;;;2.22;;
10144;SDS011;5113;41.822;23.564;2023-07-29T09:48:02;3.08;;;2.67;;
10144;SDS011;5113;41.822;23.564;2023-07-29T09:51:10;2.42;;;2.33;;
10144;SDS011;5113;41.822;23.564;2023-07-29T09:54:17;2.78;;;2.58;;
10144;SDS011;5113;41.822;23.564;2023-07-29T09:57:24;3.10;;;3.00;;
10144;SDS011;5113;41.822;23.564;2023-07-29T10:00:31;2.35;;;2.20;;
10144;SDS011;5113;41.822;23.564;2023-07-29T10:03:38;2.95;;;2.65;;
10144;SDS011;5113;41.822;23.564;2023-07-29T10:06:46;2.47;;;2.28;;
10144;SDS011;5113;41.822;23.564;2023-07-29T10:09:53;2.20;;;2.10;;
10144;SDS011;5113;41.822;23.564;2023-07-29T10:13:01;2.60;;;2.40;;
10144;SDS011;5113;41.822;23.564;2023-07-29T10:16:10;2.08;;;1.98;;
10144;SDS011;5113;41.822;23.564;2023-07-29T10:19:17;2.20;;;2.10;;
10144;SDS011;5113;41.822;23.564;2023-07-29T10:22:25;2.10;;;2.00;;
10144;SDS011;5113;41.822;23.564;2023-07-29T10:25:37;2.20;;;2.10;;
10144;SDS011;5113;41.822;23.564;2023-07-29T10:28:46;2.20;;;2.10;;
10144;SDS011;5113;41.822;23.564;2023-07-29T10:31:55;2.20;;;2.10;;
10144;SDS011;5113;41.822;23.564;2023-07-29T10:35:04;2.50;;;2.40;;
10144;SDS011;5113;41.822;23.564;2023-07-29T10:38:11;2.08;;;1.98;;
10144;SDS011;5113;41.822;23.564;2023-07-29T10:41:18;3.15;;;3.03;;
10144;SDS011;5113;41.822;23.564;2023-07-29T10:47:56;2.45;;;2.35;;
10144;SDS011;5113;41.822;23.564;2023-07-29T10:54:31;1.85;;;1.77;;
10144;SDS011;5113;41.822;23.564;2023-07-29T10:57:48;2.05;;;1.95;;
10144;SDS011;5113;41.822;23.564;2023-07-29T11:00:54;2.25;;;2.05;;
10144;SDS011;5113;41.822;23.564;2023-07-29T11:07:31;2.42;;;2.20;;
10144;SDS011;5113;41.822;23.564;2023-07-29T11:14:20;2.05;;;1.95;;
10144;SDS011;5113;41.822;23.564;2023-07-29T11:17:27;1.88;;;1.85;;
10144;SDS011;5113;41.822;23.564;2023-07-29T11:20:35;2.03;;;1.92;;
10144;SDS011;5113;41.822;23.564;2023-07-29T11:23:42;1.92;;;1.83;;
10144;SDS011;5113;41.822;23.564;2023-07-29T11:26:48;2.30;;;2.20;;
10144;SDS011;5113;41.822;23.564;2023-07-29T11:29:56;1.95;;;1.88;;
10144;SDS011;5113;41.822;23.564;2023-07-29T11:33:02;2.40;;;2.20;;
10144;SDS011;5113;41.822;23.564;2023-07-29T11:36:18;2.20;;;2.10;;
10144;SDS011;5113;41.822;23.564;2023-07-29T11:39:25;2.90;;;2.65;;
10144;SDS011;5113;41.822;23.564;2023-07-29T11:42:32;2.63;;;2.53;;
10144;SDS011;5113;41.822;23.564;2023-07-29T11:45:40;2.65;;;2.55;;
10144;SDS011;5113;41.822;23.564;2023-07-29T11:48:56;2.35;;;2.25;;
10144;SDS011;5113;41.822;23.564;2023-07-29T11:52:05;2.50;;;2.30;;
10144;SDS011;5113;41.822;23.564;2023-07-29T11:55:13;2.40;;;2.30;;
10144;SDS011;5113;41.822;23.564;2023-07-29T11:58:21;2.22;;;2.13;;
10144;SDS011;5113;41.822;23.564;2023-07-29T12:01:27;2.75;;;2.55;;
10144;SDS011;5113;41.822;23.564;2023-07-29T12:04:34;2.40;;;2.30;;
10144;SDS011;5113;41.822;23.564;2023-07-29T12:07:43;2.05;;;1.95;;
10144;SDS011;5113;41.822;23.564;2023-07-29T12:10:50;2.20;;;2.10;;
10144;SDS011;5113;41.822;23.564;2023-07-29T12:13:57;2.22;;;2.13;;
10144;SDS011;5113;41.822;23.564;2023-07-29T12:17:04;2.20;;;2.10;;
10144;SDS011;5113;41.822;23.564;2023-07-29T12:20:11;2.63;;;2.53;;
10144;SDS011;5113;41.822;23.564;2023-07-29T12:23:23;2.60;;;2.40;;
10144;SDS011;5113;41.822;23.564;2023-07-29T12:26:30;2.50;;;2.30;;
10144;SDS011;5113;41.822;23.564;2023-07-29T12:29:39;2.40;;;2.20;;
10144;SDS011;5113;41.822;23.564;2023-07-29T12:32:47;3.15;;;2.47;;
10144;SDS011;5113;41.822;23.564;2023-07-29T12:35:54;2.17;;;2.08;;
10144;SDS011;5113;41.822;23.564;2023-07-29T12:39:02;1.80;;;1.70;;
10144;SDS011;5113;41.822;23.564;2023-07-29T12:42:09;1.77;;;1.77;;
10144;SDS011;5113;41.822;23.564;2023-07-29T12:45:16;2.42;;;2.28;;
10144;SDS011;5113;41.822;23.564;2023-07-29T12:48:23;3.47;;;2.50;;
10144;SDS011;5113;41.822;23.564;2023-07-29T12:51:29;5.22;;;3.70;;
10144;SDS011;5113;41.822;23.564;2023-07-29T12:54:40;2.28;;;2.17;;
10144;SDS011;5113;41.822;23.564;2023-07-29T12:57:49;1.98;;;1.88;;
10144;SDS011;5113;41.822;23.564;2023-07-29T13:00:56;2.17;;;2.00;;
10144;SDS011;5113;41.822;23.564;2023-07-29T13:04:03;1.60;;;1.60;;
10144;SDS011;5113;41.822;23.564;2023-07-29T13:07:09;1.90;;;1.80;;
10144;SDS011;5113;41.822;23.564;2023-07-29T13:10:17;2.42;;;2.33;;
10144;SDS011;5113;41.822;23.564;2023-07-29T13:13:23;2.25;;;2.05;;
10144;SDS011;5113;41.822;23.564;2023-07-29T13:16:30;2.10;;;2.00;;
10144;SDS011;5113;41.822;23.564;2023-07-29T13:19:37;3.50;;;3.20;;
10144;SDS011;5113;41.822;23.564;2023-07-29T13:22:43;2.47;;;2.28;;
10144;SDS011;5113;41.822;23.564;2023-07-29T13:25:51;3.88;;;3.55;;
10144;SDS011;5113;41.822;23.564;2023-07-29T13:28:58;3.40;;;2.25;;
10144;SDS011;5113;41.822;23.564;2023-07-29T13:32:05;2.28;;;2.13;;
10144;SDS011;5113;41.822;23.564;2023-07-29T13:35:12;2.85;;;2.65;;
10144;SDS011;5113;41.822;23.564;2023-07-29T13:38:19;2.28;;;2.17;;
10144;SDS011;5113;41.822;23.564;2023-07-29T13:41:27;2.72;;;2.53;;
10144;SDS011;5113;41.822;23.564;2023-07-29T13:44:33;2.50;;;2.22;;
10144;SDS011;5113;41.822;23.564;2023-07-29T13:47:39;2.30;;;2.10;;
10144;SDS011;5113;41.822;23.564;2023-07-29T13:50:46;2.60;;;2.40;;
10144;SDS011;5113;41.822;23.564;2023-07-29T13:53:52;2.10;;;2.00;;
10144;SDS011;5113;41.822;23.564;2023-07-29T13:57:02;3.28;;;3.08;;
10144;SDS011;5113;41.822;23.564;2023-07-29T14:00:08;3.50;;;3.30;;
10144;SDS011;5113;41.822;23.564;2023-07-29T14:03:15;1.80;;;1.80;;
10144;SDS011;5113;41.822;23.564;2023-07-29T14:06:21;2.00;;;1.90;;
10144;SDS011;5113;41.822;23.564;2023-07-29T14:09:47;2.38;;;2.28;;
10144;SDS011;5113;41.822;23.564;2023-07-29T14:12:55;2.58;;;2.38;;
10144;SDS011;5113;41.822;23.564;2023-07-29T14:16:01;2.75;;;2.20;;
10144;SDS011;5113;41.822;23.564;2023-07-29T14:19:08;2.00;;;1.90;;
10144;SDS011;5113;41.822;23.564;2023-07-29T14:22:14;2.25;;;2.15;;
10144;SDS011;5113;41.822;23.564;2023-07-29T14:25:21;2.72;;;2.53;;
10144;SDS011;5113;41.822;23.564;2023-07-29T14:28:29;2.40;;;2.20;;
10144;SDS011;5113;41.822;23.564;2023-07-29T14:31:35;2.30;;;2.20;;
10144;SDS011;5113;41.822;23.564;2023-07-29T14:34:42;3.78;;;2.90;;
10144;SDS011;5113;41.822;23.564;2023-07-29T14:37:48;2.15;;;2.05;;
10144;SDS011;5113;41.822;23.564;2023-07-29T14:40:55;2.03;;;1.92;;
10144;SDS011;5113;41.822;23.564;2023-07-29T14:44:03;2.10;;;2.00;;
10144;SDS011;5113;41.822;23.564;2023-07-29T14:47:10;2.30;;;2.20;;
10144;SDS011;5113;41.822;23.564;2023-07-29T14:50:16;2.40;;;2.30;;
10144;SDS011;5113;41.822;23.564;2023-07-29T14:53:23;2.10;;;2.00;;
10144;SDS011;5113;41.822;23.564;2023-07-29T14:56:29;2.42;;;2.28;;
10144;SDS011;5113;41.822;23.564;2023-07-29T14:59:37;5.18;;;4.38;;
10144;SDS011;5113;41.822;23.564;2023-07-29T15:02:44;2.20;;;2.10;;
10144;SDS011;5113;41.822;23.564;2023-07-29T15:05:51;2.08;;;1.98;;
10144;SDS011;5113;41.822;23.564;2023-07-29T15:08:57;3.83;;;3.53;;
10144;SDS011;5113;41.822;23.564;2023-07-29T15:12:04;2.90;;;2.50;;
10144;SDS011;5113;41.822;23.564;2023-07-29T15:15:12;2.38;;;2.28;;
10144;SDS011;5113;41.822;23.564;2023-07-29T15:18:19;2.70;;;2.60;;
10144;SDS011;5113;41.822;23.564;2023-07-29T15:21:25;2.83;;;2.60;;
10144;SDS011;5113;41.822;23.564;2023-07-29T15:24:32;2.00;;;1.90;;
10144;SDS011;5113;41.822;23.564;2023-07-29T15:27:38;2.45;;;2.35;;
10144;SDS011;5113;41.822;23.564;2023-07-29T15:30:46;2.58;;;2.38;;
10144;SDS011;5113;41.822;23.564;2023-07-29T15:33:53;2.30;;;2.10;;
10144;SDS011;5113;41.822;23.564;2023-07-29T15:36:59;2.67;;;2.58;;
10144;SDS011;5113;41.822;23.564;2023-07-29T15:40:06;3.65;;;3.35;;
10144;SDS011;5113;41.822;23.564;2023-07-29T15:43:13;2.50;;;2.30;;
10144;SDS011;5113;41.822;23.564;2023-07-29T15:46:21;2.92;;;2.72;;
10144;SDS011;5113;41.822;23.564;2023-07-29T15:49:28;2.35;;;2.22;;
10144;SDS011;5113;41.822;23.564;2023-07-29T15:52:34;2.67;;;2.50;;
10144;SDS011;5113;41.822;23.564;2023-07-29T15:55:41;3.13;;;2.85;;
10144;SDS011;5113;41.822;23.564;2023-07-29T15:58:47;2.63;;;2.42;;
10144;SDS011;5113;41.822;23.564;2023-07-29T16:01:55;2.45;;;2.35;;
10144;SDS011;5113;41.822;23.564;2023-07-29T16:05:02;2.28;;;2.17;;
10144;SDS011;5113;41.822;23.564;2023-07-29T16:08:08;2.40;;;2.28;;
10144;SDS011;5113;41.822;23.564;2023-07-29T16:11:15;2.28;;;2.17;;
10144;SDS011;5113;41.822;23.564;2023-07-29T16:14:21;8.60;;;4.65;;
10144;SDS011;5113;41.822;23.564;2023-07-29T16:17:29;4.80;;;3.72;;
10144;SDS011;5113;41.822;23.564;2023-07-29T16:20:36;5.30;;;3.22;;
10144;SDS011;5113;41.822;23.564;2023-07-29T16:23:42;4.35;;;2.60;;
10144;SDS011;5113;41.822;23.564;2023-07-29T16:26:49;4.65;;;3.30;;
10144;SDS011;5113;41.822;23.564;2023-07-29T16:29:55;3.08;;;2.33;;
10144;SDS011;5113;41.822;23.564;2023-07-29T16:33:03;2.53;;;2.33;;
10144;SDS011;5113;41.822;23.564;2023-07-29T16:36:09;3.28;;;3.08;;
10144;SDS011;5113;41.822;23.564;2023-07-29T16:39:16;3.45;;;2.70;;
10144;SDS011;5113;41.822;23.564;2023-07-29T16:42:22;2.80;;;2.60;;
10144;SDS011;5113;41.822;23.564;2023-07-29T16:45:28;5.97;;;3.58;;
10144;SDS011;5113;41.822;23.564;2023-07-29T16:48:36;3.17;;;2.97;;
10144;SDS011;5113;41.822;23.564;2023-07-29T16:51:42;3.22;;;3.03;;
10144;SDS011;5113;41.822;23.564;2023-07-29T16:54:49;4.45;;;4.15;;
10144;SDS011;5113;41.822;23.564;2023-07-29T16:57:58;3.33;;;2.83;;
10144;SDS011;5113;41.822;23.564;2023-07-29T17:01:04;3.22;;;2.80;;
10144;SDS011;5113;41.822;23.564;2023-07-29T17:04:12;2.83;;;2.55;;
10144;SDS011;5113;41.822;23.564;2023-07-29T17:07:18;3.50;;;2.47;;
10144;SDS011;5113;41.822;23.564;2023-07-29T17:10:25;2.88;;;2.58;;
10144;SDS011;5113;41.822;23.564;2023-07-29T17:13:32;2.95;;;2.10;;
10144;SDS011;5113;41.822;23.564;2023-07-29T17:16:39;3.17;;;2.88;;
10144;SDS011;5113;41.822;23.564;2023-07-29T17:19:47;3.38;;;2.70;;
10144;SDS011;5113;41.822;23.564;2023-07-29T17:22:53;3.22;;;2.92;;
10144;SDS011;5113;41.822;23.564;2023-07-29T17:26:00;5.07;;;3.92;;
10144;SDS011;5113;41.822;23.564;2023-07-29T17:29:07;4.30;;;3.90;;
10144;SDS011;5113;41.822;23.564;2023-07-29T17:32:13;7.85;;;4.03;;
10144;SDS011;5113;41.822;23.564;2023-07-29T17:35:21;3.92;;;3.50;;
10144;SDS011;5113;41.822;23.564;2023-07-29T17:38:28;3.58;;;3.28;;
10144;SDS011;5113;41.822;23.564;2023-07-29T17:41:34;2.90;;;2.70;;
10144;SDS011;5113;41.822;23.564;2023-07-29T17:44:41;4.88;;;4.47;;
10144;SDS011;5113;41.822;23.564;2023-07-29T17:47:47;4.35;;;4.00;;
10144;SDS011;5113;41.822;23.564;2023-07-29T17:50:55;5.13;;;4.65;;
10144;SDS011;5113;41.822;23.564;2023-07-29T17:54:02;8.48;;;6.97;;
10144;SDS011;5113;41.822;23.564;2023-07-29T17:57:08;11.48;;;7.38;;
10144;SDS011;5113;41.822;23.564;2023-07-29T18:00:15;9.60;;;6.97;;
10144;SDS011;5113;41.822;23.564;2023-07-29T18:03:22;10.43;;;6.45;;
10144;SDS011;5113;41.822;23.564;2023-07-29T18:06:30;5.40;;;4.13;;
10144;SDS011;5113;41.822;23.564;2023-07-29T18:09:36;7.10;;;4.70;;
10144;SDS011;5113;41.822;23.564;2023-07-29T18:12:42;5.30;;;4.72;;
10144;SDS011;5113;41.822;23.564;2023-07-29T18:15:50;3.33;;;3.03;;
10144;SDS011;5113;41.822;23.564;2023-07-29T18:18:57;4.07;;;3.20;;
10144;SDS011;5113;41.822;23.564;2023-07-29T18:22:05;5.38;;;3.08;;
10144;SDS011;5113;41.822;23.564;2023-07-29T18:25:12;7.15;;;4.03;;
10144;SDS011;5113;41.822;23.564;2023-07-29T18:28:18;6.00;;;3.95;;
10144;SDS011;5113;41.822;23.564;2023-07-29T18:31:25;5.95;;;4.10;;
10144;SDS011;5113;41.822;23.564;2023-07-29T18:34:31;3.72;;;3.25;;
10144;SDS011;5113;41.822;23.564;2023-07-29T18:37:39;3.70;;;3.40;;
10144;SDS011;5113;41.822;23.564;2023-07-29T18:40:46;8.18;;;4.82;;
10144;SDS011;5113;41.822;23.564;2023-07-29T18:43:52;6.30;;;3.42;;
10144;SDS011;5113;41.822;23.564;2023-07-29T18:47:03;4.13;;;3.00;;
10144;SDS011;5113;41.822;23.564;2023-07-29T18:50:10;4.50;;;3.92;;
10144;SDS011;5113;41.822;23.564;2023-07-29T18:53:17;4.83;;;3.70;;
10144;SDS011;5113;41.822;23.564;2023-07-29T18:56:24;4.53;;;3.47;;
10144;SDS011;5113;41.822;23.564;2023-07-29T18:59:30;5.23;;;3.80;;
10144;SDS011;5113;41.822;23.564;2023-07-29T19:02:37;4.50;;;3.87;;